sensor_id;sensor_type;location;lat;lon;timestamp;temperature;humidity
12049;DHT22;6085;49.452;8.502;2023-07-20T00:02:06;19.90;96.00
12049;DHT22;6085;49.452;8.502;2023-07-20T00:06:10;19.80;96.70
12049;DHT22;6085;49.452;8.502;2023-07-20T00:10:11;19.80;97.40
12049;DHT22;6085;49.452;8.502;2023-07-20T00:14:13;19.70;98.20
12049;DHT22;6085;49.452;8.502;2023-07-20T00:18:15;19.70;98.90
12049;DHT22;6085;49.452;8.502;2023-07-20T00:22:19;19.70;99.20
12049;DHT22;6085;49.452;8.502;2023-07-20T00:26:20;19.70;99.60
12049;DHT22;6085;49.452;8.502;2023-07-20T00:30:22;19.60;99.90
12049;DHT22;6085;49.452;8.502;2023-07-20T00:34:25;19.50;99.90
12049;DHT22;6085;49.452;8.502;2023-07-20T00:38:28;19.50;99.90
12049;DHT22;6085;49.452;8.502;2023-07-20T00:42:30;19.40;99.90
12049;DHT22;6085;49.452;8.502;2023-07-20T00:46:32;19.30;99.90
12049;DHT22;6085;49.452;8.502;2023-07-20T00:50:34;19.20;99.90
12049;DHT22;6085;49.452;8.502;2023-07-20T00:54:38;19.10;99.90
12049;DHT22;6085;49.452;8.502;2023-07-20T00:58:40;19.10;99.90
12049;DHT22;6085;49.452;8.502;2023-07-20T01:02:42;19.00;99.90
12049;DHT22;6085;49.452;8.502;2023-07-20T01:07:00;18.90;99.90
12049;DHT22;6085;49.452;8.502;2023-07-20T01:11:12;18.80;99.90
12049;DHT22;6085;49.452;8.502;2023-07-20T01:15:16;18.70;99.90
12049;DHT22;6085;49.452;8.502;2023-07-20T01:19:18;18.60;99.90
12049;DHT22;6085;49.452;8.502;2023-07-20T01:23:32;18.60;99.90
12049;DHT22;6085;49.452;8.502;2023-07-20T01:28:04;18.40;99.90
12049;DHT22;6085;49.452;8.502;2023-07-20T01:32:14;18.20;99.90
12049;DHT22;6085;49.452;8.502;2023-07-20T01:36:18;18.10;99.90
12049;DHT22;6085;49.452;8.502;2023-07-20T01:40:22;18.00;99.90
12049;DHT22;6085;49.452;8.502;2023-07-20T01:44:26;17.90;99.90
12049;DHT22;6085;49.452;8.502;2023-07-20T01:48:31;17.90;99.90
12049;DHT22;6085;49.452;8.502;2023-07-20T01:52:33;17.90;99.90
12049;DHT22;6085;49.452;8.502;2023-07-20T01:56:35;17.90;99.90
12049;DHT22;6085;49.452;8.502;2023-07-20T02:00:37;17.90;99.90
12049;DHT22;6085;49.452;8.502;2023-07-20T02:04:40;17.80;99.90
12049;DHT22;6085;49.452;8.502;2023-07-20T02:08:42;17.80;99.90
12049;DHT22;6085;49.452;8.502;2023-07-20T02:12:44;17.70;99.90
12049;DHT22;6085;49.452;8.502;2023-07-20T02:16:46;17.70;99.90
12049;DHT22;6085;49.452;8.502;2023-07-20T02:20:54;17.70;99.90
12049;DHT22;6085;49.452;8.502;2023-07-20T02:24:56;17.60;99.90
12049;DHT22;6085;49.452;8.502;2023-07-20T02:28:58;17.60;99.90
12049;DHT22;6085;49.452;8.502;2023-07-20T02:33:00;17.60;99.90
12049;DHT22;6085;49.452;8.502;2023-07-20T02:37:04;17.60;99.90
12049;DHT22;6085;49.452;8.502;2023-07-20T02:41:06;17.50;99.90
12049;DHT22;6085;49.452;8.502;2023-07-20T02:45:08;17.50;99.90
12049;DHT22;6085;49.452;8.502;2023-07-20T02:49:10;17.40;99.90
12049;DHT22;6085;49.452;8.502;2023-07-20T02:53:13;17.30;99.90
12049;DHT22;6085;49.452;8.502;2023-07-20T02:57:15;17.20;99.90
12049;DHT22;6085;49.452;8.502;2023-07-20T03:01:17;17.20;99.90
12049;DHT22;6085;49.452;8.502;2023-07-20T03:05:19;17.10;99.90
12049;DHT22;6085;49.452;8.502;2023-07-20T03:09:22;17.00;99.90
12049;DHT22;6085;49.452;8.502;2023-07-20T03:13:24;16.90;99.90
12049;DHT22;6085;49.452;8.502;2023-07-20T03:17:26;16.90;99.90
12049;DHT22;6085;49.452;8.502;2023-07-20T03:21:28;16.80;99.90
12049;DHT22;6085;49.452;8.502;2023-07-20T03:25:31;16.70;99.90
12049;DHT22;6085;49.452;8.502;2023-07-20T03:29:34;16.60;99.90
12049;DHT22;6085;49.452;8.502;2023-07-20T03:33:36;16.60;99.90
12049;DHT22;6085;49.452;8.502;2023-07-20T03:37:38;16.60;99.90
12049;DHT22;6085;49.452;8.502;2023-07-20T03:41:41;16.50;99.90
12049;DHT22;6085;49.452;8.502;2023-07-20T03:45:43;16.60;99.90
12049;DHT22;6085;49.452;8.502;2023-07-20T03:49:46;16.50;99.90
12049;DHT22;6085;49.452;8.502;2023-07-20T03:53:47;16.60;99.90
12049;DHT22;6085;49.452;8.502;2023-07-20T03:57:51;16.70;99.90
12049;DHT22;6085;49.452;8.502;2023-07-20T04:01:53;16.70;99.90
12049;DHT22;6085;49.452;8.502;2023-07-20T04:05:55;16.80;99.90
12049;DHT22;6085;49.452;8.502;2023-07-20T04:09:57;16.80;99.90
12049;DHT22;6085;49.452;8.502;2023-07-20T04:14:00;16.90;99.90
12049;DHT22;6085;49.452;8.502;2023-07-20T04:18:02;17.10;99.90
12049;DHT22;6085;49.452;8.502;2023-07-20T04:22:05;17.30;99.90
12049;DHT22;6085;49.452;8.502;2023-07-20T04:26:07;17.60;99.90
12049;DHT22;6085;49.452;8.502;2023-07-20T04:30:11;17.90;99.90
12049;DHT22;6085;49.452;8.502;2023-07-20T04:34:13;18.00;99.90
12049;DHT22;6085;49.452;8.502;2023-07-20T04:38:15;18.10;99.90
12049;DHT22;6085;49.452;8.502;2023-07-20T04:42:18;18.10;99.90
12049;DHT22;6085;49.452;8.502;2023-07-20T04:46:22;18.30;99.90
12049;DHT22;6085;49.452;8.502;2023-07-20T04:50:24;18.40;99.90
12049;DHT22;6085;49.452;8.502;2023-07-20T04:54:26;18.40;99.90
12049;DHT22;6085;49.452;8.502;2023-07-20T04:58:28;18.40;99.90
12049;DHT22;6085;49.452;8.502;2023-07-20T05:02:31;18.50;99.90
12049;DHT22;6085;49.452;8.502;2023-07-20T05:06:33;18.60;99.90
12049;DHT22;6085;49.452;8.502;2023-07-20T05:10:35;18.60;99.90
12049;DHT22;6085;49.452;8.502;2023-07-20T05:14:37;18.40;99.90
12049;DHT22;6085;49.452;8.502;2023-07-20T05:18:41;18.30;99.90
12049;DHT22;6085;49.452;8.502;2023-07-20T05:22:43;18.10;99.90
12049;DHT22;6085;49.452;8.502;2023-07-20T05:26:45;18.00;99.90
12049;DHT22;6085;49.452;8.502;2023-07-20T05:30:46;18.00;99.90
12049;DHT22;6085;49.452;8.502;2023-07-20T05:34:53;18.00;99.90
12049;DHT22;6085;49.452;8.502;2023-07-20T05:38:55;18.40;99.90
12049;DHT22;6085;49.452;8.502;2023-07-20T05:42:57;18.70;99.90
12049;DHT22;6085;49.452;8.502;2023-07-20T05:46:59;19.10;99.90
12049;DHT22;6085;49.452;8.502;2023-07-20T05:51:04;19.30;99.90
12049;DHT22;6085;49.452;8.502;2023-07-20T05:55:07;19.90;99.90
12049;DHT22;6085;49.452;8.502;2023-07-20T05:59:09;20.40;99.90
12049;DHT22;6085;49.452;8.502;2023-07-20T06:03:11;20.50;99.90
12049;DHT22;6085;49.452;8.502;2023-07-20T06:07:18;20.30;99.90
12049;DHT22;6085;49.452;8.502;2023-07-20T06:11:20;19.80;99.90
12049;DHT22;6085;49.452;8.502;2023-07-20T06:15:26;19.80;99.90
12049;DHT22;6085;49.452;8.502;2023-07-20T06:19:28;20.80;99.90
12049;DHT22;6085;49.452;8.502;2023-07-20T06:23:31;21.70;99.90
12049;DHT22;6085;49.452;8.502;2023-07-20T06:27:33;21.90;99.90
12049;DHT22;6085;49.452;8.502;2023-07-20T06:31:35;22.10;99.90
12049;DHT22;6085;49.452;8.502;2023-07-20T06:35:37;21.70;99.90
12049;DHT22;6085;49.452;8.502;2023-07-20T06:39:44;21.90;99.90
12049;DHT22;6085;49.452;8.502;2023-07-20T06:43:46;22.30;99.90
12049;DHT22;6085;49.452;8.502;2023-07-20T06:47:48;22.60;99.90
12049;DHT22;6085;49.452;8.502;2023-07-20T06:51:50;22.80;99.90
12049;DHT22;6085;49.452;8.502;2023-07-20T06:55:53;23.00;99.90
12049;DHT22;6085;49.452;8.502;2023-07-20T06:59:57;23.30;99.90
12049;DHT22;6085;49.452;8.502;2023-07-20T07:03:59;24.00;99.90
12049;DHT22;6085;49.452;8.502;2023-07-20T07:08:01;24.80;99.90
12049;DHT22;6085;49.452;8.502;2023-07-20T07:12:05;25.70;99.90
12049;DHT22;6085;49.452;8.502;2023-07-20T07:16:07;26.20;99.90
12049;DHT22;6085;49.452;8.502;2023-07-20T07:20:09;27.20;99.80
12049;DHT22;6085;49.452;8.502;2023-07-20T07:24:11;28.50;96.80
12049;DHT22;6085;49.452;8.502;2023-07-20T07:28:15;29.40;94.20
12049;DHT22;6085;49.452;8.502;2023-07-20T07:32:17;29.40;92.40
12049;DHT22;6085;49.452;8.502;2023-07-20T07:36:19;28.40;92.80
12049;DHT22;6085;49.452;8.502;2023-07-20T07:40:21;29.70;90.60
12049;DHT22;6085;49.452;8.502;2023-07-20T07:44:24;29.80;89.50
12049;DHT22;6085;49.452;8.502;2023-07-20T07:48:26;30.20;85.80
12049;DHT22;6085;49.452;8.502;2023-07-20T07:52:28;30.70;82.30
12049;DHT22;6085;49.452;8.502;2023-07-20T07:56:30;28.50;86.80
12049;DHT22;6085;49.452;8.502;2023-07-20T08:00:34;27.40;88.60
12049;DHT22;6085;49.452;8.502;2023-07-20T08:04:36;25.30;91.80
12049;DHT22;6085;49.452;8.502;2023-07-20T08:08:38;23.70;94.60
12049;DHT22;6085;49.452;8.502;2023-07-20T08:12:40;24.90;93.60
12049;DHT22;6085;49.452;8.502;2023-07-20T08:16:43;28.90;86.60
12049;DHT22;6085;49.452;8.502;2023-07-20T08:20:46;31.00;79.90
12049;DHT22;6085;49.452;8.502;2023-07-20T08:24:49;32.90;75.50
12049;DHT22;6085;49.452;8.502;2023-07-20T08:28:51;34.30;68.80
12049;DHT22;6085;49.452;8.502;2023-07-20T08:32:54;31.80;69.10
12049;DHT22;6085;49.452;8.502;2023-07-20T08:36:57;29.40;74.10
12049;DHT22;6085;49.452;8.502;2023-07-20T08:40:59;27.20;81.20
12049;DHT22;6085;49.452;8.502;2023-07-20T08:45:06;25.50;87.70
12049;DHT22;6085;49.452;8.502;2023-07-20T08:49:10;24.20;90.90
12049;DHT22;6085;49.452;8.502;2023-07-20T08:53:13;24.50;91.70
12049;DHT22;6085;49.452;8.502;2023-07-20T08:57:15;28.20;83.60
12049;DHT22;6085;49.452;8.502;2023-07-20T09:01:19;30.80;75.50
12049;DHT22;6085;49.452;8.502;2023-07-20T09:05:23;32.30;70.40
12049;DHT22;6085;49.452;8.502;2023-07-20T09:09:25;33.50;66.60
12049;DHT22;6085;49.452;8.502;2023-07-20T09:13:27;31.50;68.40
12049;DHT22;6085;49.452;8.502;2023-07-20T09:17:29;29.50;72.80
12049;DHT22;6085;49.452;8.502;2023-07-20T09:21:32;32.00;66.60
12049;DHT22;6085;49.452;8.502;2023-07-20T09:25:36;34.50;60.90
12049;DHT22;6085;49.452;8.502;2023-07-20T09:29:47;34.60;58.50
12049;DHT22;6085;49.452;8.502;2023-07-20T09:33:52;32.30;61.80
12049;DHT22;6085;49.452;8.502;2023-07-20T09:37:59;29.80;66.20
12049;DHT22;6085;49.452;8.502;2023-07-20T09:42:01;30.40;65.20
12049;DHT22;6085;49.452;8.502;2023-07-20T09:46:05;29.10;68.20
12049;DHT22;6085;49.452;8.502;2023-07-20T09:50:08;28.60;70.10
12049;DHT22;6085;49.452;8.502;2023-07-20T09:54:13;30.80;64.50
12049;DHT22;6085;49.452;8.502;2023-07-20T09:58:16;33.40;60.50
12049;DHT22;6085;49.452;8.502;2023-07-20T10:02:25;33.60;58.70
12049;DHT22;6085;49.452;8.502;2023-07-20T10:06:28;34.00;58.30
12049;DHT22;6085;49.452;8.502;2023-07-20T10:10:34;33.70;58.00
12049;DHT22;6085;49.452;8.502;2023-07-20T10:14:41;31.60;58.90
12049;DHT22;6085;49.452;8.502;2023-07-20T10:18:49;29.50;64.20
12049;DHT22;6085;49.452;8.502;2023-07-20T10:22:53;28.80;66.40
12049;DHT22;6085;49.452;8.502;2023-07-20T10:26:58;30.30;63.20
12049;DHT22;6085;49.452;8.502;2023-07-20T10:31:00;32.60;58.70
12049;DHT22;6085;49.452;8.502;2023-07-20T10:35:12;33.80;56.40
12049;DHT22;6085;49.452;8.502;2023-07-20T10:39:22;32.80;56.20
12049;DHT22;6085;49.452;8.502;2023-07-20T10:43:26;30.90;59.20
12049;DHT22;6085;49.452;8.502;2023-07-20T10:47:45;30.20;60.10
12049;DHT22;6085;49.452;8.502;2023-07-20T10:51:48;29.10;62.80
12049;DHT22;6085;49.452;8.502;2023-07-20T10:56:06;28.30;64.30
12049;DHT22;6085;49.452;8.502;2023-07-20T11:00:12;29.60;61.90
12049;DHT22;6085;49.452;8.502;2023-07-20T11:04:15;31.80;58.20
12049;DHT22;6085;49.452;8.502;2023-07-20T11:08:40;33.80;54.60
12049;DHT22;6085;49.452;8.502;2023-07-20T11:13:23;34.30;52.50
12049;DHT22;6085;49.452;8.502;2023-07-20T11:17:30;34.30;52.00
12049;DHT22;6085;49.452;8.502;2023-07-20T11:21:37;33.80;53.00
12049;DHT22;6085;49.452;8.502;2023-07-20T11:25:40;34.70;52.30
12049;DHT22;6085;49.452;8.502;2023-07-20T11:29:42;34.70;50.60
12049;DHT22;6085;49.452;8.502;2023-07-20T11:33:46;33.60;51.80
12049;DHT22;6085;49.452;8.502;2023-07-20T11:37:48;33.10;52.80
12049;DHT22;6085;49.452;8.502;2023-07-20T11:41:51;33.30;52.40
12049;DHT22;6085;49.452;8.502;2023-07-20T11:45:53;33.40;51.90
12049;DHT22;6085;49.452;8.502;2023-07-20T11:50:02;33.60;51.40
12049;DHT22;6085;49.452;8.502;2023-07-20T11:54:06;32.60;52.30
12049;DHT22;6085;49.452;8.502;2023-07-20T11:58:09;31.30;54.00
12049;DHT22;6085;49.452;8.502;2023-07-20T12:02:12;30.70;54.70
12049;DHT22;6085;49.452;8.502;2023-07-20T12:06:15;30.30;55.20
12049;DHT22;6085;49.452;8.502;2023-07-20T12:10:24;30.30;56.10
12049;DHT22;6085;49.452;8.502;2023-07-20T12:14:26;30.60;55.00
12049;DHT22;6085;49.452;8.502;2023-07-20T12:18:35;30.80;53.60
12049;DHT22;6085;49.452;8.502;2023-07-20T12:22:43;31.40;53.90
12049;DHT22;6085;49.452;8.502;2023-07-20T12:26:45;31.40;54.90
12049;DHT22;6085;49.452;8.502;2023-07-20T12:30:47;29.90;55.50
12049;DHT22;6085;49.452;8.502;2023-07-20T12:34:57;28.70;58.30
12049;DHT22;6085;49.452;8.502;2023-07-20T12:39:02;28.30;59.70
12049;DHT22;6085;49.452;8.502;2023-07-20T12:43:05;28.40;60.50
12049;DHT22;6085;49.452;8.502;2023-07-20T12:47:07;28.50;60.00
12049;DHT22;6085;49.452;8.502;2023-07-20T12:51:10;28.90;59.40
12049;DHT22;6085;49.452;8.502;2023-07-20T12:55:13;28.80;59.00
12049;DHT22;6085;49.452;8.502;2023-07-20T12:59:15;28.70;59.40
12049;DHT22;6085;49.452;8.502;2023-07-20T13:03:17;28.90;59.30
12049;DHT22;6085;49.452;8.502;2023-07-20T13:07:30;29.10;59.20
12049;DHT22;6085;49.452;8.502;2023-07-20T13:11:33;29.20;57.20
12049;DHT22;6085;49.452;8.502;2023-07-20T13:15:41;29.40;57.20
12049;DHT22;6085;49.452;8.502;2023-07-20T13:19:43;28.80;57.20
12049;DHT22;6085;49.452;8.502;2023-07-20T13:23:45;27.80;59.00
12049;DHT22;6085;49.452;8.502;2023-07-20T13:27:48;27.50;60.10
12049;DHT22;6085;49.452;8.502;2023-07-20T13:31:50;27.60;59.40
12049;DHT22;6085;49.452;8.502;2023-07-20T13:35:52;27.30;60.20
12049;DHT22;6085;49.452;8.502;2023-07-20T13:39:55;27.00;61.00
12049;DHT22;6085;49.452;8.502;2023-07-20T13:43:58;26.80;60.70
12049;DHT22;6085;49.452;8.502;2023-07-20T13:48:00;26.80;60.60
12049;DHT22;6085;49.452;8.502;2023-07-20T13:52:02;26.60;61.80
12049;DHT22;6085;49.452;8.502;2023-07-20T13:56:04;26.90;62.20
12049;DHT22;6085;49.452;8.502;2023-07-20T14:00:08;27.40;61.40
12049;DHT22;6085;49.452;8.502;2023-07-20T14:04:11;27.70;61.10
12049;DHT22;6085;49.452;8.502;2023-07-20T14:08:13;28.00;61.00
12049;DHT22;6085;49.452;8.502;2023-07-20T14:12:15;28.10;60.30
12049;DHT22;6085;49.452;8.502;2023-07-20T14:16:18;27.80;60.20
12049;DHT22;6085;49.452;8.502;2023-07-20T14:20:21;27.20;60.80
12049;DHT22;6085;49.452;8.502;2023-07-20T14:24:23;26.90;61.30
12049;DHT22;6085;49.452;8.502;2023-07-20T14:28:25;27.10;61.80
12049;DHT22;6085;49.452;8.502;2023-07-20T14:32:28;27.10;60.90
12049;DHT22;6085;49.452;8.502;2023-07-20T14:36:30;27.10;60.50
12049;DHT22;6085;49.452;8.502;2023-07-20T14:40:32;27.00;60.50
12049;DHT22;6085;49.452;8.502;2023-07-20T14:44:34;27.20;60.70
12049;DHT22;6085;49.452;8.502;2023-07-20T14:48:37;27.10;60.20
12049;DHT22;6085;49.452;8.502;2023-07-20T14:52:39;27.10;59.60
12049;DHT22;6085;49.452;8.502;2023-07-20T14:56:49;27.10;60.00
12049;DHT22;6085;49.452;8.502;2023-07-20T15:00:51;27.10;59.10
12049;DHT22;6085;49.452;8.502;2023-07-20T15:04:54;27.20;59.40
12049;DHT22;6085;49.452;8.502;2023-07-20T15:08:59;27.20;58.90
12049;DHT22;6085;49.452;8.502;2023-07-20T15:13:01;27.00;58.20
12049;DHT22;6085;49.452;8.502;2023-07-20T15:17:06;27.10;58.00
12049;DHT22;6085;49.452;8.502;2023-07-20T15:21:10;27.30;58.70
12049;DHT22;6085;49.452;8.502;2023-07-20T15:25:12;27.20;58.30
12049;DHT22;6085;49.452;8.502;2023-07-20T15:29:14;26.90;59.80
12049;DHT22;6085;49.452;8.502;2023-07-20T15:33:16;26.70;59.60
12049;DHT22;6085;49.452;8.502;2023-07-20T15:37:19;26.50;60.00
12049;DHT22;6085;49.452;8.502;2023-07-20T15:41:21;26.40;59.90
12049;DHT22;6085;49.452;8.502;2023-07-20T15:45:23;26.40;60.00
12049;DHT22;6085;49.452;8.502;2023-07-20T15:49:25;26.40;59.70
12049;DHT22;6085;49.452;8.502;2023-07-20T15:53:29;26.40;59.60
12049;DHT22;6085;49.452;8.502;2023-07-20T15:57:31;26.50;59.30
12049;DHT22;6085;49.452;8.502;2023-07-20T16:01:34;26.50;59.10
12049;DHT22;6085;49.452;8.502;2023-07-20T16:05:36;26.50;59.60
12049;DHT22;6085;49.452;8.502;2023-07-20T16:09:39;26.50;59.60
12049;DHT22;6085;49.452;8.502;2023-07-20T16:13:41;26.50;59.80
12049;DHT22;6085;49.452;8.502;2023-07-20T16:17:44;26.60;59.90
12049;DHT22;6085;49.452;8.502;2023-07-20T16:21:46;26.70;59.50
12049;DHT22;6085;49.452;8.502;2023-07-20T16:25:50;26.70;59.80
12049;DHT22;6085;49.452;8.502;2023-07-20T16:29:52;26.60;59.60
12049;DHT22;6085;49.452;8.502;2023-07-20T16:33:54;26.40;59.90
12049;DHT22;6085;49.452;8.502;2023-07-20T16:37:56;26.30;60.30
12049;DHT22;6085;49.452;8.502;2023-07-20T16:41:59;26.40;59.80
12049;DHT22;6085;49.452;8.502;2023-07-20T16:46:01;26.40;59.80
12049;DHT22;6085;49.452;8.502;2023-07-20T16:50:05;26.50;60.50
12049;DHT22;6085;49.452;8.502;2023-07-20T16:54:07;26.60;60.60
12049;DHT22;6085;49.452;8.502;2023-07-20T16:58:11;26.60;61.90
12049;DHT22;6085;49.452;8.502;2023-07-20T17:02:12;26.60;62.80
12049;DHT22;6085;49.452;8.502;2023-07-20T17:06:15;26.50;62.40
12049;DHT22;6085;49.452;8.502;2023-07-20T17:10:17;26.50;62.70
12049;DHT22;6085;49.452;8.502;2023-07-20T17:14:21;26.50;62.80
12049;DHT22;6085;49.452;8.502;2023-07-20T17:18:23;26.50;62.50
12049;DHT22;6085;49.452;8.502;2023-07-20T17:22:25;26.30;62.50
12049;DHT22;6085;49.452;8.502;2023-07-20T17:26:27;26.20;63.10
12049;DHT22;6085;49.452;8.502;2023-07-20T17:30:30;26.00;63.00
12049;DHT22;6085;49.452;8.502;2023-07-20T17:34:32;25.90;64.00
12049;DHT22;6085;49.452;8.502;2023-07-20T17:38:35;25.80;63.50
12049;DHT22;6085;49.452;8.502;2023-07-20T17:42:38;25.70;64.20
12049;DHT22;6085;49.452;8.502;2023-07-20T17:46:41;25.70;63.40
12049;DHT22;6085;49.452;8.502;2023-07-20T17:50:43;25.60;64.00
12049;DHT22;6085;49.452;8.502;2023-07-20T17:54:45;25.50;65.20
12049;DHT22;6085;49.452;8.502;2023-07-20T17:58:47;25.40;65.80
12049;DHT22;6085;49.452;8.502;2023-07-20T18:02:50;25.30;64.50
12049;DHT22;6085;49.452;8.502;2023-07-20T18:06:52;25.20;63.80
12049;DHT22;6085;49.452;8.502;2023-07-20T18:11:02;25.20;64.40
12049;DHT22;6085;49.452;8.502;2023-07-20T18:15:05;25.10;65.10
12049;DHT22;6085;49.452;8.502;2023-07-20T18:19:09;25.00;63.70
12049;DHT22;6085;49.452;8.502;2023-07-20T18:23:11;25.00;62.60
12049;DHT22;6085;49.452;8.502;2023-07-20T18:27:13;24.90;63.20
12049;DHT22;6085;49.452;8.502;2023-07-20T18:31:15;24.80;63.60
12049;DHT22;6085;49.452;8.502;2023-07-20T18:35:19;24.70;64.20
12049;DHT22;6085;49.452;8.502;2023-07-20T18:39:21;24.70;65.20
12049;DHT22;6085;49.452;8.502;2023-07-20T18:43:23;24.60;65.50
12049;DHT22;6085;49.452;8.502;2023-07-20T18:47:24;24.40;64.80
12049;DHT22;6085;49.452;8.502;2023-07-20T18:51:28;24.30;64.80
12049;DHT22;6085;49.452;8.502;2023-07-20T18:55:31;24.20;65.00
12049;DHT22;6085;49.452;8.502;2023-07-20T18:59:33;24.20;65.50
12049;DHT22;6085;49.452;8.502;2023-07-20T19:03:35;24.10;66.10
12049;DHT22;6085;49.452;8.502;2023-07-20T19:07:39;24.10;66.40
12049;DHT22;6085;49.452;8.502;2023-07-20T19:11:41;24.00;67.10
12049;DHT22;6085;49.452;8.502;2023-07-20T19:15:47;23.90;69.00
12049;DHT22;6085;49.452;8.502;2023-07-20T19:19:50;23.90;69.80
12049;DHT22;6085;49.452;8.502;2023-07-20T19:23:53;23.80;70.40
12049;DHT22;6085;49.452;8.502;2023-07-20T19:27:55;23.70;71.40
12049;DHT22;6085;49.452;8.502;2023-07-20T19:31:57;23.60;71.30
12049;DHT22;6085;49.452;8.502;2023-07-20T19:35:59;23.60;71.40
12049;DHT22;6085;49.452;8.502;2023-07-20T19:40:03;23.50;71.60
12049;DHT22;6085;49.452;8.502;2023-07-20T19:44:05;23.40;72.20
12049;DHT22;6085;49.452;8.502;2023-07-20T19:48:09;23.30;72.70
12049;DHT22;6085;49.452;8.502;2023-07-20T19:52:12;23.20;73.10
12049;DHT22;6085;49.452;8.502;2023-07-20T19:56:17;23.10;73.40
12049;DHT22;6085;49.452;8.502;2023-07-20T20:00:19;23.10;73.50
12049;DHT22;6085;49.452;8.502;2023-07-20T20:04:21;23.00;73.70
12049;DHT22;6085;49.452;8.502;2023-07-20T20:08:23;22.90;73.90
12049;DHT22;6085;49.452;8.502;2023-07-20T20:12:27;22.90;74.30
12049;DHT22;6085;49.452;8.502;2023-07-20T20:16:29;22.90;74.50
12049;DHT22;6085;49.452;8.502;2023-07-20T20:20:32;23.00;74.60
12049;DHT22;6085;49.452;8.502;2023-07-20T20:24:37;22.90;75.10
12049;DHT22;6085;49.452;8.502;2023-07-20T20:28:40;22.80;75.10
12049;DHT22;6085;49.452;8.502;2023-07-20T20:32:42;22.80;75.60
12049;DHT22;6085;49.452;8.502;2023-07-20T20:36:44;22.70;75.70
12049;DHT22;6085;49.452;8.502;2023-07-20T20:40:46;22.60;75.80
12049;DHT22;6085;49.452;8.502;2023-07-20T20:44:50;22.70;75.80
12049;DHT22;6085;49.452;8.502;2023-07-20T20:48:52;22.50;76.40
12049;DHT22;6085;49.452;8.502;2023-07-20T20:52:54;22.40;76.40
12049;DHT22;6085;49.452;8.502;2023-07-20T20:56:56;22.30;77.00
12049;DHT22;6085;49.452;8.502;2023-07-20T21:01:01;22.10;77.70
12049;DHT22;6085;49.452;8.502;2023-07-20T21:05:04;22.00;78.00
12049;DHT22;6085;49.452;8.502;2023-07-20T21:09:07;21.90;78.70
12049;DHT22;6085;49.452;8.502;2023-07-20T21:13:09;21.90;78.80
12049;DHT22;6085;49.452;8.502;2023-07-20T21:17:12;21.80;79.50
12049;DHT22;6085;49.452;8.502;2023-07-20T21:21:14;21.80;79.70
12049;DHT22;6085;49.452;8.502;2023-07-20T21:25:16;21.70;80.10
12049;DHT22;6085;49.452;8.502;2023-07-20T21:29:18;21.70;80.70
12049;DHT22;6085;49.452;8.502;2023-07-20T21:33:21;21.60;81.20
12049;DHT22;6085;49.452;8.502;2023-07-20T21:37:23;21.50;82.30
12049;DHT22;6085;49.452;8.502;2023-07-20T21:41:25;21.40;82.20
12049;DHT22;6085;49.452;8.502;2023-07-20T21:45:27;21.30;83.90
12049;DHT22;6085;49.452;8.502;2023-07-20T21:49:30;21.20;84.80
12049;DHT22;6085;49.452;8.502;2023-07-20T21:53:32;21.10;85.20
12049;DHT22;6085;49.452;8.502;2023-07-20T21:57:34;21.00;85.60
12049;DHT22;6085;49.452;8.502;2023-07-20T22:01:36;21.00;85.60
12049;DHT22;6085;49.452;8.502;2023-07-20T22:05:42;21.00;85.70
12049;DHT22;6085;49.452;8.502;2023-07-20T22:09:45;21.00;85.70
12049;DHT22;6085;49.452;8.502;2023-07-20T22:13:47;21.00;86.00
12049;DHT22;6085;49.452;8.502;2023-07-20T22:17:50;21.00;86.50
12049;DHT22;6085;49.452;8.502;2023-07-20T22:21:53;21.00;86.60
12049;DHT22;6085;49.452;8.502;2023-07-20T22:25:56;21.00;86.10
12049;DHT22;6085;49.452;8.502;2023-07-20T22:29:58;21.00;86.90
12049;DHT22;6085;49.452;8.502;2023-07-20T22:34:00;20.90;86.60
12049;DHT22;6085;49.452;8.502;2023-07-20T22:38:03;20.80;87.80
12049;DHT22;6085;49.452;8.502;2023-07-20T22:42:05;20.60;89.20
12049;DHT22;6085;49.452;8.502;2023-07-20T22:46:07;20.40;90.10
12049;DHT22;6085;49.452;8.502;2023-07-20T22:50:10;20.20;91.10
12049;DHT22;6085;49.452;8.502;2023-07-20T22:54:13;20.10;91.70
12049;DHT22;6085;49.452;8.502;2023-07-20T22:58:15;20.10;92.30
12049;DHT22;6085;49.452;8.502;2023-07-20T23:02:17;20.00;92.70
12049;DHT22;6085;49.452;8.502;2023-07-20T23:06:19;20.00;93.30
12049;DHT22;6085;49.452;8.502;2023-07-20T23:10:23;20.10;93.80
12049;DHT22;6085;49.452;8.502;2023-07-20T23:14:25;20.10;94.20
12049;DHT22;6085;49.452;8.502;2023-07-20T23:18:27;20.10;94.80
12049;DHT22;6085;49.452;8.502;2023-07-20T23:22:29;20.10;95.20
12049;DHT22;6085;49.452;8.502;2023-07-20T23:26:34;20.10;94.70
12049;DHT22;6085;49.452;8.502;2023-07-20T23:30:36;20.20;93.90
12049;DHT22;6085;49.452;8.502;2023-07-20T23:34:38;20.30;93.60
12049;DHT22;6085;49.452;8.502;2023-07-20T23:38:40;20.40;93.30
12049;DHT22;6085;49.452;8.502;2023-07-20T23:42:46;20.40;93.40
12049;DHT22;6085;49.452;8.502;2023-07-20T23:46:48;20.30;93.50
12049;DHT22;6085;49.452;8.502;2023-07-20T23:50:50;20.20;93.70
12049;DHT22;6085;49.452;8.502;2023-07-20T23:54:52;20.10;94.10
12049;DHT22;6085;49.452;8.502;2023-07-20T23:58:55;20.00;94.60
